sensor_id;sensor_type;location;lat;lon;timestamp;temperature;humidity
20598;DHT22;10457;48.770;11.446;2023-04-03T00:04:30;4.00;66.70
20598;DHT22;10457;48.770;11.446;2023-04-03T00:09:51;3.90;67.30
20598;DHT22;10457;48.770;11.446;2023-04-03T00:15:14;3.90;67.10
20598;DHT22;10457;48.770;11.446;2023-04-03T00:20:36;3.90;67.90
20598;DHT22;10457;48.770;11.446;2023-04-03T00:25:57;3.90;68.00
20598;DHT22;10457;48.770;11.446;2023-04-03T00:31:20;3.90;67.70
20598;DHT22;10457;48.770;11.446;2023-04-03T00:36:42;3.80;67.60
20598;DHT22;10457;48.770;11.446;2023-04-03T00:42:04;3.80;68.30
20598;DHT22;10457;48.770;11.446;2023-04-03T00:47:27;3.90;68.60
20598;DHT22;10457;48.770;11.446;2023-04-03T00:52:49;3.90;68.00
20598;DHT22;10457;48.770;11.446;2023-04-03T00:58:12;3.90;68.60
20598;DHT22;10457;48.770;11.446;2023-04-03T01:03:37;3.80;68.50
20598;DHT22;10457;48.770;11.446;2023-04-03T01:08:59;3.70;69.30
20598;DHT22;10457;48.770;11.446;2023-04-03T01:14:21;3.70;69.50
20598;DHT22;10457;48.770;11.446;2023-04-03T01:19:50;3.70;69.90
20598;DHT22;10457;48.770;11.446;2023-04-03T01:25:18;3.70;69.50
20598;DHT22;10457;48.770;11.446;2023-04-03T01:30:43;3.60;70.10
20598;DHT22;10457;48.770;11.446;2023-04-03T01:36:13;3.60;70.80
20598;DHT22;10457;48.770;11.446;2023-04-03T01:41:35;3.70;70.50
20598;DHT22;10457;48.770;11.446;2023-04-03T01:47:06;3.60;71.00
20598;DHT22;10457;48.770;11.446;2023-04-03T01:52:29;3.70;70.90
20598;DHT22;10457;48.770;11.446;2023-04-03T01:57:51;3.70;71.80
20598;DHT22;10457;48.770;11.446;2023-04-03T02:03:12;3.70;71.80
20598;DHT22;10457;48.770;11.446;2023-04-03T02:08:36;3.70;71.20
20598;DHT22;10457;48.770;11.446;2023-04-03T02:14:00;3.70;70.80
20598;DHT22;10457;48.770;11.446;2023-04-03T02:19:21;3.70;71.40
20598;DHT22;10457;48.770;11.446;2023-04-03T02:24:44;3.60;70.60
20598;DHT22;10457;48.770;11.446;2023-04-03T02:30:06;3.60;71.30
20598;DHT22;10457;48.770;11.446;2023-04-03T02:35:30;3.60;71.00
20598;DHT22;10457;48.770;11.446;2023-04-03T02:40:59;3.60;71.70
20598;DHT22;10457;48.770;11.446;2023-04-03T02:46:22;3.60;71.30
20598;DHT22;10457;48.770;11.446;2023-04-03T02:51:43;3.60;71.40
20598;DHT22;10457;48.770;11.446;2023-04-03T02:57:07;3.50;71.30
20598;DHT22;10457;48.770;11.446;2023-04-03T03:02:29;3.50;71.90
20598;DHT22;10457;48.770;11.446;2023-04-03T03:07:50;3.50;71.80
20598;DHT22;10457;48.770;11.446;2023-04-03T03:13:13;3.50;71.70
20598;DHT22;10457;48.770;11.446;2023-04-03T03:18:36;3.30;72.30
20598;DHT22;10457;48.770;11.446;2023-04-03T03:23:57;3.30;72.80
20598;DHT22;10457;48.770;11.446;2023-04-03T03:29:20;3.30;73.10
20598;DHT22;10457;48.770;11.446;2023-04-03T03:34:42;3.40;73.20
20598;DHT22;10457;48.770;11.446;2023-04-03T03:40:04;3.40;72.80
20598;DHT22;10457;48.770;11.446;2023-04-03T03:45:28;3.40;73.00
20598;DHT22;10457;48.770;11.446;2023-04-03T03:50:50;3.40;73.20
20598;DHT22;10457;48.770;11.446;2023-04-03T03:56:15;3.30;73.50
20598;DHT22;10457;48.770;11.446;2023-04-03T04:01:39;3.40;73.80
20598;DHT22;10457;48.770;11.446;2023-04-03T04:07:02;3.30;74.90
20598;DHT22;10457;48.770;11.446;2023-04-03T04:12:26;3.30;74.30
20598;DHT22;10457;48.770;11.446;2023-04-03T04:17:49;3.20;74.60
20598;DHT22;10457;48.770;11.446;2023-04-03T04:23:11;3.20;73.90
20598;DHT22;10457;48.770;11.446;2023-04-03T04:28:32;3.30;74.60
20598;DHT22;10457;48.770;11.446;2023-04-03T04:33:57;3.30;74.00
20598;DHT22;10457;48.770;11.446;2023-04-03T04:39:19;3.30;74.70
20598;DHT22;10457;48.770;11.446;2023-04-03T04:44:41;3.30;74.70
20598;DHT22;10457;48.770;11.446;2023-04-03T04:50:04;3.20;75.00
20598;DHT22;10457;48.770;11.446;2023-04-03T04:55:27;3.30;75.50
20598;DHT22;10457;48.770;11.446;2023-04-03T05:00:49;3.30;75.00
20598;DHT22;10457;48.770;11.446;2023-04-03T05:06:12;3.20;74.30
20598;DHT22;10457;48.770;11.446;2023-04-03T05:11:34;3.20;74.90
20598;DHT22;10457;48.770;11.446;2023-04-03T05:16:58;3.20;74.30
20598;DHT22;10457;48.770;11.446;2023-04-03T05:22:24;3.20;74.90
20598;DHT22;10457;48.770;11.446;2023-04-03T05:27:49;3.30;74.90
20598;DHT22;10457;48.770;11.446;2023-04-03T05:33:10;3.40;73.80
20598;DHT22;10457;48.770;11.446;2023-04-03T05:38:42;3.40;74.00
20598;DHT22;10457;48.770;11.446;2023-04-03T05:44:04;3.30;73.90
20598;DHT22;10457;48.770;11.446;2023-04-03T05:49:26;3.40;74.10
20598;DHT22;10457;48.770;11.446;2023-04-03T05:54:49;3.50;74.10
20598;DHT22;10457;48.770;11.446;2023-04-03T06:00:17;3.50;73.30
20598;DHT22;10457;48.770;11.446;2023-04-03T06:05:48;3.50;73.30
20598;DHT22;10457;48.770;11.446;2023-04-03T06:11:11;3.60;72.80
20598;DHT22;10457;48.770;11.446;2023-04-03T06:16:33;3.60;73.20
20598;DHT22;10457;48.770;11.446;2023-04-03T06:21:54;3.70;74.40
20598;DHT22;10457;48.770;11.446;2023-04-03T06:27:19;3.80;73.50
20598;DHT22;10457;48.770;11.446;2023-04-03T06:32:40;3.90;72.40
20598;DHT22;10457;48.770;11.446;2023-04-03T06:38:02;3.90;73.30
20598;DHT22;10457;48.770;11.446;2023-04-03T06:43:30;4.10;72.10
20598;DHT22;10457;48.770;11.446;2023-04-03T06:48:52;4.20;71.50
20598;DHT22;10457;48.770;11.446;2023-04-03T06:54:14;4.40;69.90
20598;DHT22;10457;48.770;11.446;2023-04-03T06:59:37;4.30;70.40
20598;DHT22;10457;48.770;11.446;2023-04-03T07:04:58;4.60;69.20
20598;DHT22;10457;48.770;11.446;2023-04-03T07:10:20;4.70;68.80
20598;DHT22;10457;48.770;11.446;2023-04-03T07:15:43;4.70;69.70
20598;DHT22;10457;48.770;11.446;2023-04-03T07:21:04;4.90;68.10
20598;DHT22;10457;48.770;11.446;2023-04-03T07:26:26;5.00;68.10
20598;DHT22;10457;48.770;11.446;2023-04-03T07:31:49;5.10;66.90
20598;DHT22;10457;48.770;11.446;2023-04-03T07:37:10;5.10;66.70
20598;DHT22;10457;48.770;11.446;2023-04-03T07:42:32;5.30;66.50
20598;DHT22;10457;48.770;11.446;2023-04-03T07:47:55;5.40;64.80
20598;DHT22;10457;48.770;11.446;2023-04-03T07:53:17;5.70;63.40
20598;DHT22;10457;48.770;11.446;2023-04-03T07:58:39;5.90;60.90
20598;DHT22;10457;48.770;11.446;2023-04-03T08:04:02;6.10;62.20
20598;DHT22;10457;48.770;11.446;2023-04-03T08:09:24;6.30;60.70
20598;DHT22;10457;48.770;11.446;2023-04-03T08:14:45;6.40;60.00
20598;DHT22;10457;48.770;11.446;2023-04-03T08:20:10;6.40;59.20
20598;DHT22;10457;48.770;11.446;2023-04-03T08:25:32;6.50;58.00
20598;DHT22;10457;48.770;11.446;2023-04-03T08:30:53;6.60;57.70
20598;DHT22;10457;48.770;11.446;2023-04-03T08:36:22;7.30;57.70
20598;DHT22;10457;48.770;11.446;2023-04-03T08:41:46;7.60;54.80
20598;DHT22;10457;48.770;11.446;2023-04-03T08:47:15;7.30;54.70
20598;DHT22;10457;48.770;11.446;2023-04-03T08:52:44;7.20;56.00
20598;DHT22;10457;48.770;11.446;2023-04-03T08:58:10;7.00;55.90
20598;DHT22;10457;48.770;11.446;2023-04-03T09:03:36;7.00;54.90
20598;DHT22;10457;48.770;11.446;2023-04-03T09:09:09;7.30;55.30
20598;DHT22;10457;48.770;11.446;2023-04-03T09:14:38;7.10;56.40
20598;DHT22;10457;48.770;11.446;2023-04-03T09:20:09;7.20;55.50
20598;DHT22;10457;48.770;11.446;2023-04-03T09:25:37;7.50;53.10
20598;DHT22;10457;48.770;11.446;2023-04-03T09:31:00;7.70;53.40
20598;DHT22;10457;48.770;11.446;2023-04-03T09:36:41;7.60;52.50
20598;DHT22;10457;48.770;11.446;2023-04-03T09:42:14;7.40;53.30
20598;DHT22;10457;48.770;11.446;2023-04-03T09:47:39;6.90;52.80
20598;DHT22;10457;48.770;11.446;2023-04-03T09:53:05;7.30;50.80
20598;DHT22;10457;48.770;11.446;2023-04-03T09:58:31;7.40;50.80
20598;DHT22;10457;48.770;11.446;2023-04-03T10:04:07;7.60;50.70
20598;DHT22;10457;48.770;11.446;2023-04-03T10:09:32;7.50;50.30
20598;DHT22;10457;48.770;11.446;2023-04-03T10:14:56;7.60;48.90
20598;DHT22;10457;48.770;11.446;2023-04-03T10:20:27;7.40;49.40
20598;DHT22;10457;48.770;11.446;2023-04-03T10:26:04;7.50;49.30
20598;DHT22;10457;48.770;11.446;2023-04-03T10:31:37;8.80;47.90
20598;DHT22;10457;48.770;11.446;2023-04-03T10:37:10;12.10;40.20
20598;DHT22;10457;48.770;11.446;2023-04-03T10:42:39;11.40;36.60
20598;DHT22;10457;48.770;11.446;2023-04-03T10:48:11;10.80;37.60
20598;DHT22;10457;48.770;11.446;2023-04-03T10:53:41;14.10;36.00
20598;DHT22;10457;48.770;11.446;2023-04-03T10:59:15;12.80;34.50
20598;DHT22;10457;48.770;11.446;2023-04-03T11:04:43;11.10;36.60
20598;DHT22;10457;48.770;11.446;2023-04-03T11:10:13;11.00;35.60
20598;DHT22;10457;48.770;11.446;2023-04-03T11:15:37;11.10;35.10
20598;DHT22;10457;48.770;11.446;2023-04-03T11:21:03;11.30;34.50
20598;DHT22;10457;48.770;11.446;2023-04-03T11:26:29;11.20;34.50
20598;DHT22;10457;48.770;11.446;2023-04-03T11:32:04;12.70;34.60
20598;DHT22;10457;48.770;11.446;2023-04-03T11:37:35;15.50;29.70
20598;DHT22;10457;48.770;11.446;2023-04-03T11:43:05;12.40;34.00
20598;DHT22;10457;48.770;11.446;2023-04-03T11:48:47;12.20;34.30
20598;DHT22;10457;48.770;11.446;2023-04-03T11:54:47;14.10;30.30
20598;DHT22;10457;48.770;11.446;2023-04-03T12:12:32;14.80;26.30
20598;DHT22;10457;48.770;11.446;2023-04-03T12:17:55;12.20;28.40
20598;DHT22;10457;48.770;11.446;2023-04-03T12:23:26;12.20;28.20
20598;DHT22;10457;48.770;11.446;2023-04-03T12:28:51;11.20;30.20
20598;DHT22;10457;48.770;11.446;2023-04-03T12:34:26;10.10;32.30
20598;DHT22;10457;48.770;11.446;2023-04-03T12:40:08;12.50;29.80
20598;DHT22;10457;48.770;11.446;2023-04-03T12:45:41;16.50;24.00
20598;DHT22;10457;48.770;11.446;2023-04-03T12:51:05;16.20;23.00
20598;DHT22;10457;48.770;11.446;2023-04-03T12:56:28;14.10;25.50
20598;DHT22;10457;48.770;11.446;2023-04-03T13:01:56;18.50;20.40
20598;DHT22;10457;48.770;11.446;2023-04-03T13:07:24;20.90;17.40
20598;DHT22;10457;48.770;11.446;2023-04-03T13:12:50;18.00;18.70
20598;DHT22;10457;48.770;11.446;2023-04-03T13:18:27;15.00;22.70
20598;DHT22;10457;48.770;11.446;2023-04-03T13:23:52;15.50;21.20
20598;DHT22;10457;48.770;11.446;2023-04-03T13:29:22;16.40;19.60
20598;DHT22;10457;48.770;11.446;2023-04-03T13:34:48;19.00;19.20
20598;DHT22;10457;48.770;11.446;2023-04-03T13:40:11;15.20;23.00
20598;DHT22;10457;48.770;11.446;2023-04-03T13:45:34;13.40;24.60
20598;DHT22;10457;48.770;11.446;2023-04-03T13:51:01;17.30;20.80
20598;DHT22;10457;48.770;11.446;2023-04-03T13:56:29;19.00;18.30
20598;DHT22;10457;48.770;11.446;2023-04-03T14:01:54;17.60;18.70
20598;DHT22;10457;48.770;11.446;2023-04-03T14:07:19;16.30;20.10
20598;DHT22;10457;48.770;11.446;2023-04-03T14:12:41;14.40;20.00
20598;DHT22;10457;48.770;11.446;2023-04-03T14:18:03;13.00;26.30
20598;DHT22;10457;48.770;11.446;2023-04-03T14:23:25;12.40;26.90
20598;DHT22;10457;48.770;11.446;2023-04-03T14:28:48;11.00;30.00
20598;DHT22;10457;48.770;11.446;2023-04-03T14:34:11;9.70;31.20
20598;DHT22;10457;48.770;11.446;2023-04-03T14:39:34;8.50;31.60
20598;DHT22;10457;48.770;11.446;2023-04-03T14:44:55;8.80;30.20
20598;DHT22;10457;48.770;11.446;2023-04-03T14:50:20;9.20;31.80
20598;DHT22;10457;48.770;11.446;2023-04-03T14:55:45;9.70;32.90
20598;DHT22;10457;48.770;11.446;2023-04-03T15:01:09;8.90;32.60
20598;DHT22;10457;48.770;11.446;2023-04-03T15:06:32;8.80;33.80
20598;DHT22;10457;48.770;11.446;2023-04-03T15:11:55;8.80;35.20
20598;DHT22;10457;48.770;11.446;2023-04-03T15:17:19;9.00;33.60
20598;DHT22;10457;48.770;11.446;2023-04-03T15:22:42;9.10;31.70
20598;DHT22;10457;48.770;11.446;2023-04-03T15:28:06;8.40;34.10
20598;DHT22;10457;48.770;11.446;2023-04-03T15:33:28;8.10;32.60
20598;DHT22;10457;48.770;11.446;2023-04-03T15:38:50;8.00;32.00
20598;DHT22;10457;48.770;11.446;2023-04-03T15:44:13;8.30;32.20
20598;DHT22;10457;48.770;11.446;2023-04-03T15:49:38;8.50;31.50
20598;DHT22;10457;48.770;11.446;2023-04-03T15:54:59;8.70;32.90
20598;DHT22;10457;48.770;11.446;2023-04-03T16:00:23;8.30;33.10
20598;DHT22;10457;48.770;11.446;2023-04-03T16:05:46;8.00;35.10
20598;DHT22;10457;48.770;11.446;2023-04-03T16:11:08;7.50;35.30
20598;DHT22;10457;48.770;11.446;2023-04-03T16:16:31;7.20;35.60
20598;DHT22;10457;48.770;11.446;2023-04-03T16:21:53;7.20;37.50
20598;DHT22;10457;48.770;11.446;2023-04-03T16:27:15;7.20;36.70
20598;DHT22;10457;48.770;11.446;2023-04-03T16:32:39;7.00;36.50
20598;DHT22;10457;48.770;11.446;2023-04-03T16:38:01;6.70;38.50
20598;DHT22;10457;48.770;11.446;2023-04-03T16:43:23;6.60;38.40
20598;DHT22;10457;48.770;11.446;2023-04-03T16:48:46;6.40;37.70
20598;DHT22;10457;48.770;11.446;2023-04-03T16:54:07;6.40;39.00
20598;DHT22;10457;48.770;11.446;2023-04-03T16:59:30;6.20;40.60
20598;DHT22;10457;48.770;11.446;2023-04-03T17:04:53;5.90;41.30
20598;DHT22;10457;48.770;11.446;2023-04-03T17:10:15;5.70;39.70
20598;DHT22;10457;48.770;11.446;2023-04-03T17:15:36;5.70;40.70
20598;DHT22;10457;48.770;11.446;2023-04-03T17:20:59;5.50;41.70
20598;DHT22;10457;48.770;11.446;2023-04-03T17:26:21;5.40;42.70
20598;DHT22;10457;48.770;11.446;2023-04-03T17:31:43;5.20;42.60
20598;DHT22;10457;48.770;11.446;2023-04-03T17:37:06;5.10;43.10
20598;DHT22;10457;48.770;11.446;2023-04-03T17:42:27;5.00;43.70
20598;DHT22;10457;48.770;11.446;2023-04-03T17:47:50;4.80;44.30
20598;DHT22;10457;48.770;11.446;2023-04-03T17:53:13;4.60;45.10
20598;DHT22;10457;48.770;11.446;2023-04-03T17:58:35;4.50;45.80
20598;DHT22;10457;48.770;11.446;2023-04-03T18:03:58;4.50;46.50
20598;DHT22;10457;48.770;11.446;2023-04-03T18:09:25;4.40;46.60
20598;DHT22;10457;48.770;11.446;2023-04-03T18:14:48;4.20;47.60
20598;DHT22;10457;48.770;11.446;2023-04-03T18:20:11;4.00;47.20
20598;DHT22;10457;48.770;11.446;2023-04-03T18:25:36;3.80;48.30
20598;DHT22;10457;48.770;11.446;2023-04-03T18:30:57;3.60;47.90
20598;DHT22;10457;48.770;11.446;2023-04-03T18:36:20;3.50;47.60
20598;DHT22;10457;48.770;11.446;2023-04-03T18:41:43;3.40;47.70
20598;DHT22;10457;48.770;11.446;2023-04-03T18:47:06;3.20;47.60
20598;DHT22;10457;48.770;11.446;2023-04-03T18:52:27;3.20;47.90
20598;DHT22;10457;48.770;11.446;2023-04-03T18:57:50;3.00;48.40
20598;DHT22;10457;48.770;11.446;2023-04-03T19:03:12;3.00;48.70
20598;DHT22;10457;48.770;11.446;2023-04-03T19:08:34;2.90;49.00
20598;DHT22;10457;48.770;11.446;2023-04-03T19:13:57;2.80;49.30
20598;DHT22;10457;48.770;11.446;2023-04-03T19:19:18;2.70;49.70
20598;DHT22;10457;48.770;11.446;2023-04-03T19:24:40;2.60;50.50
20598;DHT22;10457;48.770;11.446;2023-04-03T19:30:03;2.50;49.80
20598;DHT22;10457;48.770;11.446;2023-04-03T19:35:25;2.40;50.50
20598;DHT22;10457;48.770;11.446;2023-04-03T19:40:47;2.40;50.70
20598;DHT22;10457;48.770;11.446;2023-04-03T19:46:10;2.30;51.00
20598;DHT22;10457;48.770;11.446;2023-04-03T19:51:31;2.20;51.60
20598;DHT22;10457;48.770;11.446;2023-04-03T19:56:53;2.10;52.20
20598;DHT22;10457;48.770;11.446;2023-04-03T20:02:16;2.00;53.00
20598;DHT22;10457;48.770;11.446;2023-04-03T20:07:40;2.00;53.70
20598;DHT22;10457;48.770;11.446;2023-04-03T20:13:01;1.90;54.10
20598;DHT22;10457;48.770;11.446;2023-04-03T20:18:28;2.00;54.20
20598;DHT22;10457;48.770;11.446;2023-04-03T20:23:50;1.80;54.00
20598;DHT22;10457;48.770;11.446;2023-04-03T20:29:12;1.70;54.00
20598;DHT22;10457;48.770;11.446;2023-04-03T20:34:37;1.60;54.40
20598;DHT22;10457;48.770;11.446;2023-04-03T20:39:58;1.50;54.20
20598;DHT22;10457;48.770;11.446;2023-04-03T20:45:20;1.50;52.80
20598;DHT22;10457;48.770;11.446;2023-04-03T20:50:43;1.50;53.20
20598;DHT22;10457;48.770;11.446;2023-04-03T20:56:05;1.50;54.30
20598;DHT22;10457;48.770;11.446;2023-04-03T21:01:27;1.50;53.50
20598;DHT22;10457;48.770;11.446;2023-04-03T21:19:26;1.40;54.30
20598;DHT22;10457;48.770;11.446;2023-04-03T21:24:47;1.30;54.70
20598;DHT22;10457;48.770;11.446;2023-04-03T21:30:10;1.30;55.20
20598;DHT22;10457;48.770;11.446;2023-04-03T21:35:33;1.30;55.30
20598;DHT22;10457;48.770;11.446;2023-04-03T21:40:55;1.20;56.40
20598;DHT22;10457;48.770;11.446;2023-04-03T21:46:18;1.20;57.50
20598;DHT22;10457;48.770;11.446;2023-04-03T21:51:41;1.20;57.10
20598;DHT22;10457;48.770;11.446;2023-04-03T21:57:03;1.10;57.50
20598;DHT22;10457;48.770;11.446;2023-04-03T22:02:25;1.20;58.00
20598;DHT22;10457;48.770;11.446;2023-04-03T22:07:48;1.20;58.10
20598;DHT22;10457;48.770;11.446;2023-04-03T22:13:11;1.10;58.80
20598;DHT22;10457;48.770;11.446;2023-04-03T22:18:34;1.20;59.70
20598;DHT22;10457;48.770;11.446;2023-04-03T22:23:58;1.10;59.20
20598;DHT22;10457;48.770;11.446;2023-04-03T22:29:20;1.10;59.50
20598;DHT22;10457;48.770;11.446;2023-04-03T22:34:42;1.10;59.60
20598;DHT22;10457;48.770;11.446;2023-04-03T22:40:06;1.00;59.70
20598;DHT22;10457;48.770;11.446;2023-04-03T22:45:32;0.90;60.60
20598;DHT22;10457;48.770;11.446;2023-04-03T22:50:53;0.90;60.80
20598;DHT22;10457;48.770;11.446;2023-04-03T22:56:16;0.80;61.10
20598;DHT22;10457;48.770;11.446;2023-04-03T23:01:38;0.70;61.00
20598;DHT22;10457;48.770;11.446;2023-04-03T23:06:59;0.70;61.50
20598;DHT22;10457;48.770;11.446;2023-04-03T23:12:23;0.70;61.80
20598;DHT22;10457;48.770;11.446;2023-04-03T23:17:46;0.60;61.90
20598;DHT22;10457;48.770;11.446;2023-04-03T23:23:08;0.50;62.50
20598;DHT22;10457;48.770;11.446;2023-04-03T23:28:31;0.50;63.00
20598;DHT22;10457;48.770;11.446;2023-04-03T23:33:53;0.50;63.60
20598;DHT22;10457;48.770;11.446;2023-04-03T23:39:14;0.50;63.60
20598;DHT22;10457;48.770;11.446;2023-04-03T23:44:40;0.40;63.80
20598;DHT22;10457;48.770;11.446;2023-04-03T23:50:01;0.40;64.20
20598;DHT22;10457;48.770;11.446;2023-04-03T23:55:23;0.30;64.70
